Time;durP1;ratioP1;P1;durP2;ratioP2;P2;SDS_P1;SDS_P2;PMS_P1;PMS_P2;Temp;Humidity;BMP_temperature;BMP_pressure;BME280_temperature;BME280_humidity;BME280_pressure;Samples;Min_cycle;Max_cycle;Signal;HPM_P1;HPM_P2
2023/09/26 00:00:53;;;;;;;6.50;4.43;;;;;;;;;;5046852;28;20041;-80
2023/09/26 00:03:18;;;;;;;10.15;4.97;;;;;;;;;;5065103;28;20020;-80
2023/09/26 00:05:44;;;;;;;5.78;4.38;;;;;;;;;;5069054;28;20090;-80
2023/09/26 00:08:09;;;;;;;7.55;4.55;;;;;;;;;;5049194;28;20043;-83
2023/09/26 00:10:35;;;;;;;5.32;4.45;;;;;;;;;;5050592;28;20403;-83
2023/09/26 00:13:00;;;;;;;6.75;4.80;;;;;;;;;;5062013;28;20040;-82
2023/09/26 00:15:25;;;;;;;5.93;4.57;;;;;;;;;;5064575;28;20031;-83
2023/09/26 00:17:51;;;;;;;7.15;4.55;;;;;;;;;;5047950;28;20116;-82
2023/09/26 00:20:27;;;;;;;5.47;4.32;;;;;;;;;;5067970;28;20473;-82
2023/09/26 00:22:54;;;;;;;7.10;4.18;;;;;;;;;;5063978;28;20032;-82
2023/09/26 00:25:21;;;;;;;6.30;4.60;;;;;;;;;;5070558;28;20479;-82
2023/09/26 00:27:47;;;;;;;7.40;4.72;;;;;;;;;;5064909;28;20133;-82
2023/09/26 00:30:12;;;;;;;5.88;4.35;;;;;;;;;;5054041;28;20123;-83
2023/09/26 00:32:38;;;;;;;8.32;5.10;;;;;;;;;;5047937;28;20032;-82
2023/09/26 00:35:05;;;;;;;5.82;4.50;;;;;;;;;;5048167;28;20058;-82
2023/09/26 00:37:31;;;;;;;6.50;4.80;;;;;;;;;;5049583;28;20111;-79
2023/09/26 00:39:56;;;;;;;7.65;4.70;;;;;;;;;;5070540;28;20492;-80
2023/09/26 00:42:22;;;;;;;6.53;4.60;;;;;;;;;;5050237;28;20062;-80
2023/09/26 00:44:47;;;;;;;7.68;6.00;;;;;;;;;;5052818;28;20040;-80
2023/09/26 00:47:13;;;;;;;5.80;4.75;;;;;;;;;;5054964;28;20040;-80
2023/09/26 00:49:38;;;;;;;9.13;6.63;;;;;;;;;;5062741;28;20040;-80
2023/09/26 00:52:04;;;;;;;6.57;5.00;;;;;;;;;;5056802;28;20131;-80
2023/09/26 00:54:30;;;;;;;7.53;5.32;;;;;;;;;;5051457;28;20028;-80
2023/09/26 00:56:57;;;;;;;6.68;5.15;;;;;;;;;;5050207;28;20030;-80
2023/09/26 00:59:22;;;;;;;6.95;5.10;;;;;;;;;;5069091;28;20055;-83
2023/09/26 01:01:49;;;;;;;7.22;5.30;;;;;;;;;;5069723;28;20059;-81
2023/09/26 01:04:15;;;;;;;7.20;5.15;;;;;;;;;;5051696;28;20024;-83
2023/09/26 01:06:41;;;;;;;6.70;5.22;;;;;;;;;;5066761;28;20043;-83
2023/09/26 01:09:09;;;;;;;7.53;6.05;;;;;;;;;;5070763;28;20029;-80
2023/09/26 01:11:35;;;;;;;6.75;5.95;;;;;;;;;;5065560;28;20089;-80
2023/09/26 01:14:00;;;;;;;9.43;6.57;;;;;;;;;;5067534;28;20417;-80
2023/09/26 01:16:25;;;;;;;8.90;6.50;;;;;;;;;;5060643;28;20071;-80
2023/09/26 01:18:51;;;;;;;8.30;6.25;;;;;;;;;;5065572;28;20040;-80
2023/09/26 01:21:17;;;;;;;8.45;6.38;;;;;;;;;;5047635;28;20024;-80
2023/09/26 01:23:47;;;;;;;7.05;5.53;;;;;;;;;;5069783;28;20024;-80
2023/09/26 01:26:13;;;;;;;8.27;6.20;;;;;;;;;;5064015;28;20087;-80
2023/09/26 01:28:38;;;;;;;8.90;6.65;;;;;;;;;;5060861;28;20464;-82
2023/09/26 01:31:04;;;;;;;8.30;6.47;;;;;;;;;;5071372;28;20073;-82
2023/09/26 01:33:29;;;;;;;9.38;6.78;;;;;;;;;;5069495;28;20036;-82
2023/09/26 01:35:54;;;;;;;9.68;6.93;;;;;;;;;;5067261;28;20024;-82
2023/09/26 01:38:21;;;;;;;8.60;6.50;;;;;;;;;;5067984;28;20042;-82
2023/09/26 01:40:47;;;;;;;7.60;6.20;;;;;;;;;;5052957;28;20488;-82
2023/09/26 01:43:12;;;;;;;7.15;6.20;;;;;;;;;;5048894;28;20114;-82
2023/09/26 01:45:38;;;;;;;8.38;5.85;;;;;;;;;;5063210;28;20059;-82
2023/09/26 01:48:06;;;;;;;7.97;5.93;;;;;;;;;;5044946;28;20057;-82
2023/09/26 01:50:34;;;;;;;7.07;6.00;;;;;;;;;;5046710;28;20481;-82
2023/09/26 01:52:59;;;;;;;7.88;6.40;;;;;;;;;;5055877;28;20032;-82
2023/09/26 01:55:25;;;;;;;8.23;5.95;;;;;;;;;;5047257;28;20024;-82
2023/09/26 01:57:50;;;;;;;7.70;6.00;;;;;;;;;;5047648;28;20027;-82
2023/09/26 02:00:17;;;;;;;7.32;6.05;;;;;;;;;;5063818;28;20093;-82
2023/09/26 02:02:47;;;;;;;7.47;6.10;;;;;;;;;;5050874;28;20024;-82
2023/09/26 02:05:21;;;;;;;6.95;6.25;;;;;;;;;;5062535;28;20464;-82
2023/09/26 02:07:48;;;;;;;7.18;6.10;;;;;;;;;;5066386;28;20102;-82
2023/09/26 02:10:14;;;;;;;8.10;5.85;;;;;;;;;;5072058;28;20090;-82
2023/09/26 02:12:42;;;;;;;7.53;6.20;;;;;;;;;;5050144;28;20029;-82
2023/09/26 02:15:08;;;;;;;7.10;6.28;;;;;;;;;;5049522;28;20024;-82
2023/09/26 02:17:35;;;;;;;7.40;5.90;;;;;;;;;;5046619;28;20036;-82
2023/09/26 02:20:12;;;;;;;8.32;6.63;;;;;;;;;;5063575;28;20099;-81
2023/09/26 02:22:39;;;;;;;6.68;5.88;;;;;;;;;;5068371;28;20028;-82
2023/09/26 02:25:06;;;;;;;6.55;5.68;;;;;;;;;;5046102;28;20027;-82
2023/09/26 02:27:32;;;;;;;9.82;6.30;;;;;;;;;;5062519;28;20067;-82
2023/09/26 02:29:58;;;;;;;6.85;6.15;;;;;;;;;;5064903;28;20036;-82
2023/09/26 02:32:24;;;;;;;8.57;6.40;;;;;;;;;;5065711;28;20480;-82
2023/09/26 02:34:49;;;;;;;8.68;6.57;;;;;;;;;;5058063;28;20025;-82
2023/09/26 02:37:14;;;;;;;7.28;5.70;;;;;;;;;;5068094;28;20099;-82
2023/09/26 02:39:40;;;;;;;6.80;5.65;;;;;;;;;;5066592;28;20056;-82
2023/09/26 02:42:05;;;;;;;8.20;5.80;;;;;;;;;;5066386;28;20029;-82
2023/09/26 02:44:31;;;;;;;8.38;6.05;;;;;;;;;;5062355;28;20032;-82
2023/09/26 02:46:56;;;;;;;7.88;6.15;;;;;;;;;;5068357;28;20032;-82
2023/09/26 02:49:21;;;;;;;7.38;6.03;;;;;;;;;;5069846;28;20483;-82
2023/09/26 02:51:47;;;;;;;6.93;5.90;;;;;;;;;;5066355;28;20570;-82
2023/09/26 02:54:12;;;;;;;7.47;5.78;;;;;;;;;;5048601;28;20032;-81
2023/09/26 02:56:37;;;;;;;7.70;6.28;;;;;;;;;;5049197;28;20561;-82
2023/09/26 02:59:03;;;;;;;8.30;6.03;;;;;;;;;;5063144;28;20024;-82
2023/09/26 03:01:28;;;;;;;7.15;5.55;;;;;;;;;;5063144;28;20033;-82
2023/09/26 03:03:54;;;;;;;8.50;6.13;;;;;;;;;;5047861;28;20451;-82
2023/09/26 03:06:20;;;;;;;10.65;6.75;;;;;;;;;;5046568;28;20017;-82
2023/09/26 03:08:45;;;;;;;10.50;6.93;;;;;;;;;;5061870;28;20056;-82
2023/09/26 03:11:11;;;;;;;9.73;6.65;;;;;;;;;;5051091;28;20035;-82
2023/09/26 03:13:37;;;;;;;7.45;6.63;;;;;;;;;;5065239;28;20119;-82
2023/09/26 03:16:02;;;;;;;6.70;5.80;;;;;;;;;;5047735;28;20036;-82
2023/09/26 03:18:28;;;;;;;8.52;6.80;;;;;;;;;;5048573;28;20040;-82
2023/09/26 03:20:53;;;;;;;9.10;6.70;;;;;;;;;;5045551;28;20024;-82
2023/09/26 03:23:21;;;;;;;8.90;6.20;;;;;;;;;;5050795;28;20111;-82
2023/09/26 03:25:46;;;;;;;6.78;6.03;;;;;;;;;;5065242;28;20028;-82
2023/09/26 03:28:12;;;;;;;6.57;5.75;;;;;;;;;;5060816;28;20036;-82
2023/09/26 03:30:42;;;;;;;7.78;6.22;;;;;;;;;;5060015;28;20036;-82
2023/09/26 03:33:07;;;;;;;6.97;5.95;;;;;;;;;;5064211;28;20021;-82
2023/09/26 03:35:32;;;;;;;10.10;6.40;;;;;;;;;;5045739;28;20119;-82
2023/09/26 03:37:58;;;;;;;7.00;5.88;;;;;;;;;;5068947;28;20017;-81
2023/09/26 03:40:23;;;;;;;8.23;6.05;;;;;;;;;;5065756;28;20116;-82
2023/09/26 03:42:48;;;;;;;6.93;6.22;;;;;;;;;;5065178;28;20111;-82
2023/09/26 03:45:14;;;;;;;8.98;6.18;;;;;;;;;;5064892;28;20020;-82
2023/09/26 03:47:39;;;;;;;6.72;5.85;;;;;;;;;;5058978;28;20115;-79
2023/09/26 03:50:05;;;;;;;8.13;6.25;;;;;;;;;;5047646;28;20357;-78
2023/09/26 03:52:30;;;;;;;7.78;6.07;;;;;;;;;;5044655;28;20032;-79
2023/09/26 03:54:56;;;;;;;7.00;5.60;;;;;;;;;;5045477;28;20033;-79
2023/09/26 03:57:21;;;;;;;7.82;5.95;;;;;;;;;;5065982;28;20020;-79
2023/09/26 03:59:50;;;;;;;7.13;6.07;;;;;;;;;;5053706;28;20074;-79
2023/09/26 04:02:16;;;;;;;8.43;5.72;;;;;;;;;;5065643;28;20536;-79
2023/09/26 04:04:41;;;;;;;7.60;5.80;;;;;;;;;;5067474;28;20430;-78
2023/09/26 04:07:06;;;;;;;7.00;6.18;;;;;;;;;;5048296;28;20044;-79
2023/09/26 04:09:35;;;;;;;6.88;6.07;;;;;;;;;;5065238;28;20400;-79
2023/09/26 04:12:03;;;;;;;8.40;5.72;;;;;;;;;;5052122;28;20036;-79
2023/09/26 04:14:29;;;;;;;6.75;5.78;;;;;;;;;;5053342;28;20040;-79
2023/09/26 04:16:54;;;;;;;8.85;6.00;;;;;;;;;;5065093;28;20466;-78
2023/09/26 04:19:20;;;;;;;7.10;6.07;;;;;;;;;;5067041;28;20063;-79
2023/09/26 04:21:45;;;;;;;7.90;6.50;;;;;;;;;;5046806;28;20025;-78
2023/09/26 04:24:11;;;;;;;7.57;5.65;;;;;;;;;;5047514;28;20032;-78
2023/09/26 04:26:36;;;;;;;7.18;6.10;;;;;;;;;;5045640;28;20028;-78
2023/09/26 04:29:02;;;;;;;7.32;6.10;;;;;;;;;;5069026;28;20056;-79
2023/09/26 04:31:27;;;;;;;7.50;5.90;;;;;;;;;;5068333;28;20043;-78
2023/09/26 04:33:53;;;;;;;8.23;6.30;;;;;;;;;;5069708;28;20376;-79
2023/09/26 04:36:18;;;;;;;8.10;6.53;;;;;;;;;;5067108;28;20090;-79
2023/09/26 04:38:45;;;;;;;7.72;6.10;;;;;;;;;;5049033;28;20024;-79
2023/09/26 04:41:11;;;;;;;9.52;6.47;;;;;;;;;;5063928;28;20024;-79
2023/09/26 04:43:36;;;;;;;10.30;6.53;;;;;;;;;;5060204;28;20507;-79
2023/09/26 04:46:02;;;;;;;7.68;6.60;;;;;;;;;;5048458;28;20495;-80
2023/09/26 04:48:27;;;;;;;7.40;5.88;;;;;;;;;;5044409;28;20028;-79
2023/09/26 04:50:54;;;;;;;9.10;6.70;;;;;;;;;;5042993;28;20082;-81
2023/09/26 04:53:19;;;;;;;8.43;6.78;;;;;;;;;;5068172;28;20029;-82
2023/09/26 04:55:45;;;;;;;8.90;7.28;;;;;;;;;;5065885;28;20058;-83
2023/09/26 04:58:10;;;;;;;9.55;6.82;;;;;;;;;;5047865;28;20052;-79
2023/09/26 05:00:38;;;;;;;9.75;7.82;;;;;;;;;;5046980;28;20016;-79
2023/09/26 05:03:04;;;;;;;10.55;7.60;;;;;;;;;;5064537;28;20055;-79
2023/09/26 05:05:30;;;;;;;9.98;7.20;;;;;;;;;;5066457;28;20451;-79
2023/09/26 05:07:55;;;;;;;11.35;7.90;;;;;;;;;;5066990;28;20021;-79
2023/09/26 05:10:21;;;;;;;9.05;7.60;;;;;;;;;;5050516;28;20029;-79
2023/09/26 05:12:46;;;;;;;11.20;6.82;;;;;;;;;;5065772;28;20021;-79
2023/09/26 05:15:14;;;;;;;9.85;7.63;;;;;;;;;;5048131;28;20033;-79
2023/09/26 05:17:48;;;;;;;9.05;7.20;;;;;;;;;;5028403;28;20496;-79
2023/09/26 05:20:15;;;;;;;9.68;7.30;;;;;;;;;;5068328;28;20036;-78
2023/09/26 05:22:42;;;;;;;8.48;7.03;;;;;;;;;;5067571;28;20078;-79
2023/09/26 05:25:08;;;;;;;9.75;7.32;;;;;;;;;;5068947;28;20069;-78
2023/09/26 05:27:34;;;;;;;9.80;7.43;;;;;;;;;;5063206;28;20489;-79
2023/09/26 05:30:00;;;;;;;9.50;6.97;;;;;;;;;;5064606;28;20488;-79
2023/09/26 05:32:25;;;;;;;9.13;6.72;;;;;;;;;;5051174;28;20043;-79
2023/09/26 05:34:50;;;;;;;8.27;6.53;;;;;;;;;;5070372;28;20031;-79
2023/09/26 05:37:16;;;;;;;9.80;6.97;;;;;;;;;;5040988;28;20047;-79
2023/09/26 05:39:42;;;;;;;10.52;6.80;;;;;;;;;;5070687;28;20032;-79
2023/09/26 05:42:10;;;;;;;9.38;7.03;;;;;;;;;;5068497;28;20024;-79
2023/09/26 05:44:36;;;;;;;12.73;6.93;;;;;;;;;;5065849;28;20028;-79
2023/09/26 05:47:01;;;;;;;9.35;6.60;;;;;;;;;;5077253;28;20425;-79
2023/09/26 05:49:26;;;;;;;10.98;7.00;;;;;;;;;;5064331;28;20586;-79
2023/09/26 05:51:52;;;;;;;9.18;7.00;;;;;;;;;;5066697;28;20044;-79
2023/09/26 05:54:17;;;;;;;8.32;6.40;;;;;;;;;;5066848;28;20033;-82
2023/09/26 05:56:44;;;;;;;9.43;7.13;;;;;;;;;;5068880;28;20456;-82
2023/09/26 05:59:09;;;;;;;8.25;6.85;;;;;;;;;;5071346;28;20098;-83
2023/09/26 06:01:35;;;;;;;9.32;6.90;;;;;;;;;;5052802;28;20086;-83
2023/09/26 06:04:00;;;;;;;8.60;6.75;;;;;;;;;;5070620;28;20383;-82
2023/09/26 06:06:25;;;;;;;9.77;6.80;;;;;;;;;;5069337;28;20036;-82
2023/09/26 06:08:51;;;;;;;9.13;6.60;;;;;;;;;;5062038;28;20094;-82
2023/09/26 06:11:16;;;;;;;8.80;7.10;;;;;;;;;;5070887;28;20351;-83
2023/09/26 06:13:43;;;;;;;8.70;6.43;;;;;;;;;;5048886;28;20052;-82
2023/09/26 06:16:09;;;;;;;9.63;6.63;;;;;;;;;;5068958;28;20037;-82
2023/09/26 06:18:34;;;;;;;10.02;7.38;;;;;;;;;;5046954;28;20094;-83
2023/09/26 06:21:04;;;;;;;10.15;7.60;;;;;;;;;;5051339;28;20032;-79
2023/09/26 06:23:31;;;;;;;9.98;7.10;;;;;;;;;;5066067;28;20476;-78
2023/09/26 06:25:58;;;;;;;8.80;7.28;;;;;;;;;;5069494;28;20071;-78
2023/09/26 06:28:23;;;;;;;9.15;7.22;;;;;;;;;;5065260;28;20468;-79
2023/09/26 06:30:49;;;;;;;10.10;7.15;;;;;;;;;;5051368;28;20028;-78
2023/09/26 06:33:14;;;;;;;8.98;7.50;;;;;;;;;;5050696;28;20125;-78
2023/09/26 06:35:39;;;;;;;10.55;7.78;;;;;;;;;;5068346;28;20424;-78
2023/09/26 06:38:05;;;;;;;10.43;8.50;;;;;;;;;;5050437;28;20403;-78
2023/09/26 06:40:30;;;;;;;11.48;7.70;;;;;;;;;;5043014;28;20459;-78
2023/09/26 06:42:56;;;;;;;9.05;7.38;;;;;;;;;;5051113;28;20024;-78
2023/09/26 06:45:22;;;;;;;11.02;8.00;;;;;;;;;;5060073;28;20020;-78
2023/09/26 06:47:48;;;;;;;10.18;7.90;;;;;;;;;;5061926;28;20024;-79
2023/09/26 06:50:13;;;;;;;12.65;8.30;;;;;;;;;;5044449;28;20464;-78
2023/09/26 06:52:39;;;;;;;11.02;7.47;;;;;;;;;;5045830;28;20077;-78
2023/09/26 06:55:10;;;;;;;8.95;6.85;;;;;;;;;;5045557;28;20105;-79
2023/09/26 06:57:38;;;;;;;10.00;7.82;;;;;;;;;;5067304;28;20055;-79
2023/09/26 07:00:05;;;;;;;10.38;7.75;;;;;;;;;;5063431;28;20100;-79
2023/09/26 07:02:31;;;;;;;12.80;8.55;;;;;;;;;;5065741;28;20538;-78
2023/09/26 07:04:56;;;;;;;14.45;7.60;;;;;;;;;;5048971;28;20061;-79
2023/09/26 07:07:23;;;;;;;10.23;7.30;;;;;;;;;;5040946;28;20023;-79
2023/09/26 07:09:48;;;;;;;9.82;6.78;;;;;;;;;;5041791;28;20028;-79
2023/09/26 07:12:13;;;;;;;12.63;8.20;;;;;;;;;;5061830;28;20024;-78
2023/09/26 07:14:39;;;;;;;10.05;7.63;;;;;;;;;;5047744;28;20030;-78
2023/09/26 07:17:04;;;;;;;11.65;8.98;;;;;;;;;;5046261;28;20519;-78
2023/09/26 07:19:33;;;;;;;9.50;7.97;;;;;;;;;;5045052;28;20487;-78
2023/09/26 07:21:59;;;;;;;10.18;8.20;;;;;;;;;;5061467;28;20039;-79
2023/09/26 07:24:24;;;;;;;9.95;8.13;;;;;;;;;;5050815;28;20028;-78
2023/09/26 07:26:51;;;;;;;13.15;9.48;;;;;;;;;;5049329;28;20017;-79
2023/09/26 07:29:16;;;;;;;8.63;7.13;;;;;;;;;;5047622;28;20040;-79
2023/09/26 07:31:42;;;;;;;11.55;7.60;;;;;;;;;;5072145;28;20419;-79
2023/09/26 07:34:07;;;;;;;10.32;7.20;;;;;;;;;;5066268;28;20031;-78
2023/09/26 07:36:34;;;;;;;9.85;7.30;;;;;;;;;;5069325;28;20082;-79
2023/09/26 07:39:03;;;;;;;10.85;9.50;;;;;;;;;;5070313;28;20481;-79
2023/09/26 07:41:29;;;;;;;10.13;8.77;;;;;;;;;;5067240;28;20507;-80
2023/09/26 07:43:54;;;;;;;14.55;9.60;;;;;;;;;;5046724;28;20061;-80
2023/09/26 07:46:21;;;;;;;12.88;9.82;;;;;;;;;;5051719;28;20020;-79
2023/09/26 07:48:47;;;;;;;12.63;10.40;;;;;;;;;;5052701;28;20036;-79
2023/09/26 07:51:12;;;;;;;11.75;9.55;;;;;;;;;;5066744;28;20054;-79
2023/09/26 07:53:38;;;;;;;11.13;9.95;;;;;;;;;;5044159;28;20430;-80
2023/09/26 07:56:04;;;;;;;11.57;9.50;;;;;;;;;;5059865;28;20086;-80
2023/09/26 07:58:29;;;;;;;13.65;9.88;;;;;;;;;;5046423;28;20021;-79
2023/09/26 08:00:58;;;;;;;17.60;10.27;;;;;;;;;;5051873;28;20024;-79
2023/09/26 08:03:24;;;;;;;11.52;9.23;;;;;;;;;;5049354;28;20463;-79
2023/09/26 08:06:08;;;;;;;12.52;10.07;;;;;;;;;;5060382;28;20021;-79
2023/09/26 08:08:34;;;;;;;14.77;9.98;;;;;;;;;;5052908;28;20039;-79
2023/09/26 08:11:08;;;;;;;14.40;10.23;;;;;;;;;;5048552;28;20484;-79
2023/09/26 08:13:34;;;;;;;12.15;9.55;;;;;;;;;;5044201;28;20029;-79
2023/09/26 08:16:04;;;;;;;17.70;9.35;;;;;;;;;;5048646;28;20070;-79
2023/09/26 08:18:29;;;;;;;12.35;9.38;;;;;;;;;;5063758;28;20476;-79
2023/09/26 08:20:58;;;;;;;15.35;9.63;;;;;;;;;;5051249;28;20036;-79
2023/09/26 08:23:28;;;;;;;21.30;10.73;;;;;;;;;;5068898;28;20086;-79
2023/09/26 08:25:57;;;;;;;15.02;9.77;;;;;;;;;;5075862;28;20032;-79
2023/09/26 08:28:23;;;;;;;14.80;9.68;;;;;;;;;;5052801;28;20028;-79
2023/09/26 08:30:48;;;;;;;15.93;9.70;;;;;;;;;;5057988;28;20377;-78
2023/09/26 08:33:13;;;;;;;11.18;9.55;;;;;;;;;;5069910;28;20028;-79
2023/09/26 08:35:42;;;;;;;10.88;9.20;;;;;;;;;;5047555;28;20111;-79
2023/09/26 08:38:07;;;;;;;14.13;9.43;;;;;;;;;;5064845;28;20020;-78
2023/09/26 08:40:33;;;;;;;13.15;9.00;;;;;;;;;;5049663;28;20025;-85
2023/09/26 08:42:58;;;;;;;12.13;8.27;;;;;;;;;;5062498;28;20024;-80
2023/09/26 08:45:27;;;;;;;16.20;8.55;;;;;;;;;;5050364;28;20032;-79
2023/09/26 08:47:56;;;;;;;15.35;9.07;;;;;;;;;;5069699;28;20036;-79
2023/09/26 08:50:23;;;;;;;15.82;9.13;;;;;;;;;;5071617;28;20112;-79
2023/09/26 08:52:49;;;;;;;13.10;8.52;;;;;;;;;;5066976;28;20037;-78
2023/09/26 08:55:14;;;;;;;9.73;8.65;;;;;;;;;;5050392;28;20024;-79
2023/09/26 08:57:40;;;;;;;10.15;8.85;;;;;;;;;;5072855;28;20028;-79
2023/09/26 09:00:08;;;;;;;9.52;8.45;;;;;;;;;;5055210;28;20030;-79
2023/09/26 09:02:34;;;;;;;12.20;8.40;;;;;;;;;;5052649;28;20101;-79
2023/09/26 09:04:59;;;;;;;14.38;8.75;;;;;;;;;;5062051;28;20056;-79
2023/09/26 09:07:25;;;;;;;11.65;8.88;;;;;;;;;;5064990;28;20021;-79
2023/09/26 09:10:08;;;;;;;9.90;8.40;;;;;;;;;;5072164;28;20103;-86
2023/09/26 09:12:34;;;;;;;;;;;;;;;;;;5077063;28;20543;-86
2023/09/26 09:14:59;;;;;;;10.65;8.48;;;;;;;;;;5052280;28;20011;-80
2023/09/26 09:17:25;;;;;;;11.63;7.78;;;;;;;;;;5052260;28;20028;-80
2023/09/26 09:19:52;;;;;;;13.02;8.70;;;;;;;;;;5047392;28;20024;-82
2023/09/26 09:22:20;;;;;;;11.25;8.35;;;;;;;;;;5049285;28;20718;-80
2023/09/26 09:24:56;;;;;;;11.65;8.15;;;;;;;;;;5056479;28;20031;-79
2023/09/26 09:27:29;;;;;;;14.68;8.13;;;;;;;;;;5049274;28;20388;-80
2023/09/26 09:30:12;;;;;;;10.02;7.93;;;;;;;;;;5045353;28;20024;-80
2023/09/26 09:32:40;;;;;;;11.15;8.77;;;;;;;;;;5055620;28;20034;-80
2023/09/26 09:35:08;;;;;;;10.43;8.27;;;;;;;;;;5062796;28;20098;-80
2023/09/26 09:37:34;;;;;;;11.50;7.88;;;;;;;;;;5070314;28;20036;-80
2023/09/26 09:39:59;;;;;;;11.38;8.50;;;;;;;;;;5065431;28;20028;-81
2023/09/26 09:42:24;;;;;;;12.90;8.30;;;;;;;;;;5065150;28;20020;-80
2023/09/26 09:44:50;;;;;;;11.00;8.57;;;;;;;;;;5037376;28;20024;-80
2023/09/26 09:47:22;;;;;;;10.73;9.63;;;;;;;;;;5071017;28;20008;-80
2023/09/26 09:49:48;;;;;;;11.25;8.80;;;;;;;;;;5054868;28;20037;-86
2023/09/26 09:52:17;;;;;;;15.27;9.25;;;;;;;;;;5071277;28;20587;-88
2023/09/26 09:54:45;;;;;;;11.60;8.73;;;;;;;;;;5056721;28;20028;-87
2023/09/26 09:57:14;;;;;;;9.63;8.32;;;;;;;;;;5054489;28;20491;-80
2023/09/26 09:59:40;;;;;;;11.60;8.45;;;;;;;;;;5049257;28;20507;-80
2023/09/26 10:02:06;;;;;;;11.07;7.78;;;;;;;;;;5065699;28;20116;-80
2023/09/26 10:04:40;;;;;;;20.00;8.40;;;;;;;;;;5053152;28;20459;-80
2023/09/26 10:07:06;;;;;;;11.63;8.35;;;;;;;;;;5062130;28;20025;-80
2023/09/26 10:09:33;;;;;;;9.50;8.25;;;;;;;;;;5051527;28;20499;-80
2023/09/26 10:11:59;;;;;;;12.65;8.68;;;;;;;;;;5064644;28;20037;-81
2023/09/26 10:14:28;;;;;;;10.27;8.20;;;;;;;;;;5050357;28;20028;-80
2023/09/26 10:16:55;;;;;;;11.27;8.13;;;;;;;;;;5065245;28;20021;-80
2023/09/26 10:19:22;;;;;;;10.63;7.50;;;;;;;;;;5066471;28;20486;-80
2023/09/26 10:21:47;;;;;;;9.82;7.32;;;;;;;;;;5064333;28;20043;-80
2023/09/26 10:24:13;;;;;;;10.45;7.97;;;;;;;;;;5051480;28;20476;-80
2023/09/26 10:26:43;;;;;;;10.65;7.63;;;;;;;;;;5067818;28;20518;-81
2023/09/26 10:29:20;;;;;;;9.90;7.55;;;;;;;;;;5049947;28;20028;-80
2023/09/26 10:31:53;;;;;;;12.15;8.32;;;;;;;;;;5052915;28;20028;-80
2023/09/26 10:34:18;;;;;;;14.95;7.50;;;;;;;;;;5073167;28;20157;-80
2023/09/26 10:36:43;;;;;;;11.10;8.63;;;;;;;;;;5051129;28;20127;-80
2023/09/26 10:39:09;;;;;;;8.73;7.57;;;;;;;;;;5045663;28;20032;-81
2023/09/26 10:41:36;;;;;;;9.98;8.10;;;;;;;;;;5053817;28;20028;-80
2023/09/26 10:44:04;;;;;;;10.90;8.02;;;;;;;;;;5050819;28;20077;-81
2023/09/26 10:46:30;;;;;;;11.55;8.93;;;;;;;;;;5044024;28;20025;-87
2023/09/26 10:48:58;;;;;;;11.18;8.73;;;;;;;;;;5070313;28;20111;-81
2023/09/26 10:51:23;;;;;;;11.13;8.38;;;;;;;;;;5052366;28;20813;-80
2023/09/26 10:53:49;;;;;;;11.30;8.45;;;;;;;;;;5057870;28;20051;-81
2023/09/26 10:56:14;;;;;;;10.25;7.90;;;;;;;;;;5052014;28;20125;-81
2023/09/26 10:58:46;;;;;;;13.57;8.60;;;;;;;;;;5068778;28;20039;-80
2023/09/26 11:01:11;;;;;;;11.45;8.52;;;;;;;;;;5064070;28;20029;-80
2023/09/26 11:03:37;;;;;;;11.32;8.25;;;;;;;;;;5058171;28;20035;-80
2023/09/26 11:06:04;;;;;;;9.90;7.68;;;;;;;;;;5040611;28;20029;-81
2023/09/26 11:08:30;;;;;;;9.88;8.25;;;;;;;;;;5048200;28;20399;-80
2023/09/26 11:10:56;;;;;;;8.30;7.15;;;;;;;;;;5046470;28;20446;-81
2023/09/26 11:13:23;;;;;;;11.80;8.77;;;;;;;;;;5061439;28;20059;-81
2023/09/26 11:15:52;;;;;;;9.10;7.45;;;;;;;;;;5041668;28;20024;-80
2023/09/26 11:18:18;;;;;;;9.50;7.65;;;;;;;;;;5042608;28;20035;-81
2023/09/26 11:20:43;;;;;;;14.88;7.00;;;;;;;;;;5045576;28;20434;-81
2023/09/26 11:23:09;;;;;;;8.88;6.80;;;;;;;;;;5062557;28;20024;-80
2023/09/26 11:25:34;;;;;;;11.50;7.15;;;;;;;;;;5065910;28;20033;-81
2023/09/26 11:28:01;;;;;;;10.15;7.13;;;;;;;;;;5044344;28;20481;-80
2023/09/26 11:30:27;;;;;;;8.98;6.70;;;;;;;;;;5065456;28;20028;-81
2023/09/26 11:32:54;;;;;;;8.38;6.90;;;;;;;;;;5058509;28;20024;-81
2023/09/26 11:35:21;;;;;;;9.82;7.05;;;;;;;;;;5063615;28;20463;-82
2023/09/26 11:37:54;;;;;;;11.15;6.60;;;;;;;;;;5043332;28;20115;-81
2023/09/26 11:40:24;;;;;;;10.68;6.03;;;;;;;;;;5058664;28;20393;-80
2023/09/26 11:42:51;;;;;;;9.20;6.45;;;;;;;;;;5044039;28;20040;-81
2023/09/26 11:45:22;;;;;;;11.98;6.65;;;;;;;;;;5063105;28;20396;-81
2023/09/26 11:47:48;;;;;;;7.63;5.80;;;;;;;;;;5065938;28;20028;-80
2023/09/26 11:50:14;;;;;;;9.80;6.40;;;;;;;;;;5044927;28;20021;-81
2023/09/26 11:52:40;;;;;;;11.13;6.78;;;;;;;;;;5060795;28;20087;-81
2023/09/26 11:55:06;;;;;;;8.90;6.20;;;;;;;;;;5050866;28;20106;-81
2023/09/26 11:57:33;;;;;;;11.43;5.00;;;;;;;;;;5050804;28;20484;-81
2023/09/26 11:59:59;;;;;;;9.52;5.60;;;;;;;;;;5064294;28;20515;-81
2023/09/26 12:02:24;;;;;;;8.93;5.10;;;;;;;;;;5068550;28;20064;-81
2023/09/26 12:04:49;;;;;;;7.07;4.35;;;;;;;;;;5062734;28;20454;-81
2023/09/26 12:07:15;;;;;;;9.13;4.50;;;;;;;;;;5061371;28;20021;-81
2023/09/26 12:09:43;;;;;;;9.32;4.90;;;;;;;;;;5064456;28;20029;-81
2023/09/26 12:12:09;;;;;;;7.03;4.15;;;;;;;;;;5049005;28;20119;-81
2023/09/26 12:14:34;;;;;;;5.75;3.75;;;;;;;;;;5067204;28;20145;-81
2023/09/26 12:17:00;;;;;;;8.45;4.15;;;;;;;;;;5068840;28;20024;-81
2023/09/26 12:19:25;;;;;;;8.75;4.30;;;;;;;;;;5068918;28;20039;-81
2023/09/26 12:21:51;;;;;;;6.22;4.30;;;;;;;;;;5050197;28;20025;-80
2023/09/26 12:24:16;;;;;;;6.07;3.72;;;;;;;;;;5072255;28;20032;-81
2023/09/26 12:26:45;;;;;;;6.43;4.07;;;;;;;;;;5065596;28;20462;-81
2023/09/26 12:29:10;;;;;;;7.95;4.45;;;;;;;;;;5062543;28;20032;-81
2023/09/26 12:31:36;;;;;;;6.78;4.43;;;;;;;;;;5046079;28;20442;-81
2023/09/26 12:34:02;;;;;;;5.95;3.75;;;;;;;;;;5047454;28;20086;-81
2023/09/26 12:36:28;;;;;;;6.35;4.30;;;;;;;;;;5051953;28;20078;-81
2023/09/26 12:38:54;;;;;;;7.53;4.95;;;;;;;;;;5066885;28;20140;-81
2023/09/26 12:41:19;;;;;;;8.20;4.53;;;;;;;;;;5069458;28;20124;-81
2023/09/26 12:43:45;;;;;;;6.82;4.40;;;;;;;;;;5049500;28;20024;-81
2023/09/26 12:46:10;;;;;;;7.35;3.95;;;;;;;;;;5048269;28;20056;-81
2023/09/26 12:48:35;;;;;;;7.97;4.85;;;;;;;;;;5063766;28;20024;-81
2023/09/26 12:51:01;;;;;;;7.72;4.20;;;;;;;;;;5047672;28;20044;-81
2023/09/26 12:53:26;;;;;;;6.90;4.80;;;;;;;;;;5051568;28;20128;-80
2023/09/26 12:55:53;;;;;;;7.65;4.95;;;;;;;;;;5048404;28;20034;-79
2023/09/26 12:58:19;;;;;;;10.32;4.95;;;;;;;;;;5047102;28;20037;-79
2023/09/26 13:00:45;;;;;;;6.70;4.78;;;;;;;;;;5070794;28;20085;-83
2023/09/26 13:03:10;;;;;;;8.20;4.18;;;;;;;;;;5046310;28;20021;-81
2023/09/26 13:05:36;;;;;;;7.88;4.22;;;;;;;;;;5063756;28;20040;-81
2023/09/26 13:08:02;;;;;;;9.30;4.15;;;;;;;;;;5066756;28;20024;-88
2023/09/26 13:10:31;;;;;;;7.35;4.90;;;;;;;;;;5059148;28;20032;-88
2023/09/26 13:12:56;;;;;;;8.18;4.80;;;;;;;;;;5045779;28;20486;-88
2023/09/26 13:15:28;;;;;;;8.73;4.47;;;;;;;;;;5051579;28;20381;-87
2023/09/26 13:17:53;;;;;;;8.25;4.35;;;;;;;;;;5044658;28;20028;-87
2023/09/26 13:20:19;;;;;;;9.00;4.55;;;;;;;;;;5047319;28;20032;-88
2023/09/26 13:22:44;;;;;;;8.10;4.85;;;;;;;;;;5046503;28;20385;-87
2023/09/26 13:25:09;;;;;;;8.75;5.55;;;;;;;;;;5062410;28;20418;-87
2023/09/26 13:27:35;;;;;;;7.97;5.57;;;;;;;;;;5052003;28;20025;-88
2023/09/26 13:30:01;;;;;;;7.35;5.35;;;;;;;;;;5056851;28;20049;-88
2023/09/26 13:32:26;;;;;;;10.25;4.95;;;;;;;;;;5068422;28;20036;-88
2023/09/26 13:34:52;;;;;;;8.27;4.93;;;;;;;;;;5075066;28;20023;-88
2023/09/26 13:37:17;;;;;;;7.47;5.63;;;;;;;;;;5065501;28;20497;-88
2023/09/26 13:39:42;;;;;;;7.53;5.70;;;;;;;;;;5051232;28;20028;-87
2023/09/26 13:42:08;;;;;;;8.63;5.30;;;;;;;;;;5065700;28;20024;-87
2023/09/26 13:44:33;;;;;;;10.48;5.38;;;;;;;;;;5043666;28;20039;-86
2023/09/26 13:47:02;;;;;;;6.68;5.22;;;;;;;;;;5046050;28;20124;-85
2023/09/26 13:49:28;;;;;;;7.35;4.22;;;;;;;;;;5066687;28;20025;-88
2023/09/26 13:51:55;;;;;;;7.63;5.22;;;;;;;;;;5062863;28;20483;-88
2023/09/26 13:54:20;;;;;;;7.78;4.95;;;;;;;;;;5067154;28;20028;-89
2023/09/26 13:56:46;;;;;;;9.00;4.63;;;;;;;;;;5050290;28;20384;-85
2023/09/26 13:59:11;;;;;;;8.88;4.75;;;;;;;;;;5048796;28;20031;-87
2023/09/26 14:01:36;;;;;;;7.90;4.88;;;;;;;;;;5047024;28;20055;-88
2023/09/26 14:04:02;;;;;;;6.82;4.82;;;;;;;;;;5062439;28;20029;-88
2023/09/26 14:06:27;;;;;;;7.53;4.90;;;;;;;;;;5043274;28;20020;-88
2023/09/26 14:08:53;;;;;;;4.85;3.90;;;;;;;;;;5039872;28;20423;-87
2023/09/26 14:11:19;;;;;;;5.55;3.97;;;;;;;;;;5045984;28;20127;-87
2023/09/26 14:13:45;;;;;;;6.90;3.97;;;;;;;;;;5065432;28;20095;-87
2023/09/26 14:16:10;;;;;;;5.70;3.70;;;;;;;;;;5042604;28;20056;-87
2023/09/26 14:18:36;;;;;;;6.32;3.95;;;;;;;;;;5065347;28;20032;-88
2023/09/26 14:21:07;;;;;;;5.38;3.97;;;;;;;;;;5051257;28;20555;-88
2023/09/26 14:23:33;;;;;;;6.30;3.80;;;;;;;;;;5064944;28;20051;-89
2023/09/26 14:25:58;;;;;;;5.80;3.30;;;;;;;;;;5038857;28;20091;-86
2023/09/26 14:28:25;;;;;;;4.57;3.25;;;;;;;;;;5048726;28;20391;-89
2023/09/26 14:30:51;;;;;;;7.47;3.20;;;;;;;;;;5068427;28;20025;-90
2023/09/26 14:33:16;;;;;;;5.30;2.80;;;;;;;;;;5045486;28;20031;-89